sensor_id;sensor_type;location;lat;lon;timestamp;pressure;altitude;pressure_sealevel;temperature;humidity
5883;BME280;2967;51.488;6.618;2023-08-21T00:04:56;101950.44;;;21.20;100.00
5883;BME280;2967;51.488;6.618;2023-08-21T00:10:00;101792.75;;;20.21;100.00
5883;BME280;2967;51.488;6.618;2023-08-21T00:15:04;101977.22;;;21.22;100.00
5883;BME280;2967;51.488;6.618;2023-08-21T00:20:09;101991.50;;;21.13;100.00
5883;BME280;2967;51.488;6.618;2023-08-21T00:25:14;101835.91;;;20.20;100.00
5883;BME280;2967;51.488;6.618;2023-08-21T00:30:17;101838.00;;;20.16;100.00
5883;BME280;2967;51.488;6.618;2023-08-21T00:35:20;101960.34;;;21.01;100.00
5883;BME280;2967;51.488;6.618;2023-08-21T00:40:26;101956.75;;;20.91;100.00
5883;BME280;2967;51.488;6.618;2023-08-21T00:45:29;101876.56;;;20.36;100.00
5883;BME280;2967;51.488;6.618;2023-08-21T00:50:33;101925.91;;;20.65;100.00
5883;BME280;2967;51.488;6.618;2023-08-21T00:55:38;101949.19;;;20.85;100.00
5883;BME280;2967;51.488;6.618;2023-08-21T01:00:45;101969.94;;;20.94;100.00
5883;BME280;2967;51.488;6.618;2023-08-21T01:05:49;101774.41;;;19.66;100.00
5883;BME280;2967;51.488;6.618;2023-08-21T01:10:56;101969.00;;;20.84;100.00
5883;BME280;2967;51.488;6.618;2023-08-21T01:16:04;101966.72;;;20.79;100.00
5883;BME280;2967;51.488;6.618;2023-08-21T01:21:08;101881.44;;;20.21;100.00
5883;BME280;2967;51.488;6.618;2023-08-21T01:26:13;101974.50;;;20.73;100.00
5883;BME280;2967;51.488;6.618;2023-08-21T01:31:19;101966.16;;;20.76;100.00
5883;BME280;2967;51.488;6.618;2023-08-21T01:36:25;101972.63;;;20.73;100.00
5883;BME280;2967;51.488;6.618;2023-08-21T01:41:29;101974.03;;;20.68;100.00
5883;BME280;2967;51.488;6.618;2023-08-21T01:46:32;101920.28;;;20.38;100.00
5883;BME280;2967;51.488;6.618;2023-08-21T01:51:37;101978.28;;;20.61;100.00
5883;BME280;2967;51.488;6.618;2023-08-21T01:56:44;101960.34;;;20.71;100.00
5883;BME280;2967;51.488;6.618;2023-08-21T02:01:49;101951.28;;;20.72;100.00
5883;BME280;2967;51.488;6.618;2023-08-21T02:06:53;101957.66;;;20.71;100.00
5883;BME280;2967;51.488;6.618;2023-08-21T02:11:58;101943.41;;;20.50;100.00
5883;BME280;2967;51.488;6.618;2023-08-21T02:17:01;101912.28;;;20.27;100.00
5883;BME280;2967;51.488;6.618;2023-08-21T02:22:04;101857.41;;;19.99;100.00
5883;BME280;2967;51.488;6.618;2023-08-21T02:27:09;101817.19;;;19.88;100.00
5883;BME280;2967;51.488;6.618;2023-08-21T02:32:13;101958.31;;;20.63;100.00
5883;BME280;2967;51.488;6.618;2023-08-21T02:37:24;101936.25;;;20.30;100.00
5883;BME280;2967;51.488;6.618;2023-08-21T02:42:30;101964.84;;;20.40;100.00
5883;BME280;2967;51.488;6.618;2023-08-21T02:47:35;101945.25;;;20.29;100.00
5883;BME280;2967;51.488;6.618;2023-08-21T02:52:38;101901.25;;;20.00;100.00
5883;BME280;2967;51.488;6.618;2023-08-21T02:57:43;101969.41;;;20.40;100.00
5883;BME280;2967;51.488;6.618;2023-08-21T03:02:46;101918.31;;;20.10;100.00
5883;BME280;2967;51.488;6.618;2023-08-21T03:07:49;101858.03;;;19.62;100.00
5883;BME280;2967;51.488;6.618;2023-08-21T03:12:54;101964.41;;;20.15;100.00
5883;BME280;2967;51.488;6.618;2023-08-21T03:17:57;101931.38;;;20.03;100.00
5883;BME280;2967;51.488;6.618;2023-08-21T03:23:01;101942.94;;;20.15;100.00
5883;BME280;2967;51.488;6.618;2023-08-21T03:28:06;101953.59;;;20.26;100.00
5883;BME280;2967;51.488;6.618;2023-08-21T03:33:09;101949.81;;;20.28;100.00
5883;BME280;2967;51.488;6.618;2023-08-21T03:38:12;101949.22;;;20.25;100.00
5883;BME280;2967;51.488;6.618;2023-08-21T03:43:20;101947.78;;;20.21;100.00
5883;BME280;2967;51.488;6.618;2023-08-21T03:48:23;101953.00;;;20.22;100.00
5883;BME280;2967;51.488;6.618;2023-08-21T03:53:26;101951.16;;;20.02;100.00
5883;BME280;2967;51.488;6.618;2023-08-21T03:58:31;101900.44;;;19.68;100.00
5883;BME280;2967;51.488;6.618;2023-08-21T04:03:34;101959.44;;;19.90;100.00
5883;BME280;2967;51.488;6.618;2023-08-21T04:08:37;101961.25;;;19.89;100.00
5883;BME280;2967;51.488;6.618;2023-08-21T04:13:43;101965.63;;;19.90;100.00
5883;BME280;2967;51.488;6.618;2023-08-21T04:18:46;101949.13;;;19.74;100.00
5883;BME280;2967;51.488;6.618;2023-08-21T04:23:49;101956.31;;;19.74;100.00
5883;BME280;2967;51.488;6.618;2023-08-21T04:28:56;101976.00;;;19.74;100.00
5883;BME280;2967;51.488;6.618;2023-08-21T04:33:59;101947.59;;;19.81;100.00
5883;BME280;2967;51.488;6.618;2023-08-21T04:39:02;101964.25;;;19.96;100.00
5883;BME280;2967;51.488;6.618;2023-08-21T04:44:07;101870.78;;;19.49;100.00
5883;BME280;2967;51.488;6.618;2023-08-21T04:49:10;101876.88;;;19.51;100.00
5883;BME280;2967;51.488;6.618;2023-08-21T04:54:13;101972.09;;;20.19;100.00
5883;BME280;2967;51.488;6.618;2023-08-21T04:59:18;101934.66;;;19.86;100.00
5883;BME280;2967;51.488;6.618;2023-08-21T05:04:24;101909.63;;;19.65;100.00
5883;BME280;2967;51.488;6.618;2023-08-21T05:09:29;101948.13;;;19.96;100.00
5883;BME280;2967;51.488;6.618;2023-08-21T05:14:37;101965.28;;;20.15;100.00
5883;BME280;2967;51.488;6.618;2023-08-21T05:19:40;101967.00;;;20.16;100.00
5883;BME280;2967;51.488;6.618;2023-08-21T05:24:43;101909.53;;;19.97;100.00
5883;BME280;2967;51.488;6.618;2023-08-21T05:29:47;101968.41;;;20.20;100.00
5883;BME280;2967;51.488;6.618;2023-08-21T05:34:52;101839.22;;;19.41;100.00
5883;BME280;2967;51.488;6.618;2023-08-21T05:39:56;101965.44;;;20.23;100.00
5883;BME280;2967;51.488;6.618;2023-08-21T05:45:00;101984.63;;;20.30;100.00
5883;BME280;2967;51.488;6.618;2023-08-21T05:50:07;101952.97;;;20.13;100.00
5883;BME280;2967;51.488;6.618;2023-08-21T05:55:13;101993.19;;;20.44;100.00
5883;BME280;2967;51.488;6.618;2023-08-21T06:00:20;101996.63;;;20.56;100.00
5883;BME280;2967;51.488;6.618;2023-08-21T06:05:23;101947.44;;;20.35;100.00
5883;BME280;2967;51.488;6.618;2023-08-21T06:10:30;101962.25;;;20.59;100.00
5883;BME280;2967;51.488;6.618;2023-08-21T06:15:35;101965.84;;;20.69;100.00
5883;BME280;2967;51.488;6.618;2023-08-21T06:20:38;101998.22;;;20.88;100.00
5883;BME280;2967;51.488;6.618;2023-08-21T06:25:42;102002.97;;;21.05;100.00
5883;BME280;2967;51.488;6.618;2023-08-21T06:30:55;102004.53;;;21.08;100.00
5883;BME280;2967;51.488;6.618;2023-08-21T06:35:58;102010.78;;;21.18;100.00
5883;BME280;2967;51.488;6.618;2023-08-21T06:41:01;101986.41;;;21.10;100.00
5883;BME280;2967;51.488;6.618;2023-08-21T06:46:14;102024.69;;;21.23;100.00
5883;BME280;2967;51.488;6.618;2023-08-21T06:51:20;102038.03;;;21.43;100.00
5883;BME280;2967;51.488;6.618;2023-08-21T06:56:23;102040.91;;;21.42;100.00
5883;BME280;2967;51.488;6.618;2023-08-21T07:01:27;102025.56;;;21.33;100.00
5883;BME280;2967;51.488;6.618;2023-08-21T07:06:30;102016.78;;;21.31;100.00
5883;BME280;2967;51.488;6.618;2023-08-21T07:11:33;102030.09;;;21.32;100.00
5883;BME280;2967;51.488;6.618;2023-08-21T07:16:37;102031.53;;;21.46;100.00
5883;BME280;2967;51.488;6.618;2023-08-21T07:21:40;102009.69;;;21.30;100.00
5883;BME280;2967;51.488;6.618;2023-08-21T07:26:43;102042.47;;;21.63;100.00
5883;BME280;2967;51.488;6.618;2023-08-21T07:31:47;102056.00;;;21.73;100.00
5883;BME280;2967;51.488;6.618;2023-08-21T07:36:50;102008.63;;;21.61;100.00
5883;BME280;2967;51.488;6.618;2023-08-21T07:41:53;102030.19;;;21.79;100.00
5883;BME280;2967;51.488;6.618;2023-08-21T07:46:57;102025.09;;;21.76;100.00
5883;BME280;2967;51.488;6.618;2023-08-21T07:52:02;102040.69;;;21.82;100.00
5883;BME280;2967;51.488;6.618;2023-08-21T07:57:05;102037.41;;;21.88;100.00
5883;BME280;2967;51.488;6.618;2023-08-21T08:02:09;102041.97;;;21.97;100.00
5883;BME280;2967;51.488;6.618;2023-08-21T08:07:13;102011.75;;;22.03;100.00
5883;BME280;2967;51.488;6.618;2023-08-21T08:12:16;102042.41;;;22.21;100.00
5883;BME280;2967;51.488;6.618;2023-08-21T08:17:20;102054.03;;;22.31;100.00
5883;BME280;2967;51.488;6.618;2023-08-21T08:22:24;102028.75;;;22.32;100.00
5883;BME280;2967;51.488;6.618;2023-08-21T08:27:27;102040.97;;;22.46;100.00
5883;BME280;2967;51.488;6.618;2023-08-21T08:32:31;102041.94;;;22.54;100.00
5883;BME280;2967;51.488;6.618;2023-08-21T08:37:34;102042.91;;;22.63;100.00
5883;BME280;2967;51.488;6.618;2023-08-21T08:42:38;102046.84;;;22.68;100.00
5883;BME280;2967;51.488;6.618;2023-08-21T08:47:42;102029.78;;;22.77;100.00
5883;BME280;2967;51.488;6.618;2023-08-21T08:52:46;102017.00;;;22.79;100.00
5883;BME280;2967;51.488;6.618;2023-08-21T08:57:53;102046.97;;;23.13;100.00
5883;BME280;2967;51.488;6.618;2023-08-21T09:03:04;102010.38;;;23.01;100.00
5883;BME280;2967;51.488;6.618;2023-08-21T09:08:10;102039.22;;;23.37;99.20
5883;BME280;2967;51.488;6.618;2023-08-21T09:13:14;102031.50;;;23.42;99.45
5883;BME280;2967;51.488;6.618;2023-08-21T09:18:19;102034.44;;;23.48;99.11
5883;BME280;2967;51.488;6.618;2023-08-21T09:23:22;102027.34;;;23.47;100.00
5883;BME280;2967;51.488;6.618;2023-08-21T09:28:25;102029.38;;;23.63;97.99
5883;BME280;2967;51.488;6.618;2023-08-21T09:33:29;102037.69;;;23.69;100.00
5883;BME280;2967;51.488;6.618;2023-08-21T09:38:33;102040.56;;;23.68;100.00
5883;BME280;2967;51.488;6.618;2023-08-21T09:43:41;102026.06;;;23.51;98.39
5883;BME280;2967;51.488;6.618;2023-08-21T09:48:47;102042.41;;;23.67;100.00
5883;BME280;2967;51.488;6.618;2023-08-21T09:53:53;101990.66;;;23.45;100.00
5883;BME280;2967;51.488;6.618;2023-08-21T09:59:01;102040.66;;;23.76;99.55
5883;BME280;2967;51.488;6.618;2023-08-21T10:04:07;101979.03;;;23.44;99.52
5883;BME280;2967;51.488;6.618;2023-08-21T10:09:13;102024.44;;;23.76;100.00
5883;BME280;2967;51.488;6.618;2023-08-21T10:14:17;102019.28;;;23.82;99.39
5883;BME280;2967;51.488;6.618;2023-08-21T10:19:30;102018.41;;;23.82;100.00
5883;BME280;2967;51.488;6.618;2023-08-21T10:24:35;101978.19;;;23.61;100.00
5883;BME280;2967;51.488;6.618;2023-08-21T10:29:39;102014.44;;;23.86;99.55
5883;BME280;2967;51.488;6.618;2023-08-21T10:34:51;102015.28;;;23.86;99.40
5883;BME280;2967;51.488;6.618;2023-08-21T10:39:56;102002.88;;;23.84;100.00
5883;BME280;2967;51.488;6.618;2023-08-21T10:45:10;101989.47;;;23.74;99.33
5883;BME280;2967;51.488;6.618;2023-08-21T10:50:15;102026.53;;;23.99;100.00
5883;BME280;2967;51.488;6.618;2023-08-21T10:55:18;102015.59;;;24.01;100.00
5883;BME280;2967;51.488;6.618;2023-08-21T11:00:21;101962.28;;;23.76;100.00
5883;BME280;2967;51.488;6.618;2023-08-21T11:05:25;101985.63;;;23.94;98.17
5883;BME280;2967;51.488;6.618;2023-08-21T11:10:30;102030.16;;;24.25;100.00
5883;BME280;2967;51.488;6.618;2023-08-21T11:15:33;102014.66;;;24.35;100.00
5883;BME280;2967;51.488;6.618;2023-08-21T11:20:39;102016.28;;;24.46;100.00
5883;BME280;2967;51.488;6.618;2023-08-21T11:25:46;101968.56;;;24.19;99.52
5883;BME280;2967;51.488;6.618;2023-08-21T11:30:49;101999.09;;;24.55;99.57
5883;BME280;2967;51.488;6.618;2023-08-21T11:35:54;102034.38;;;24.96;99.52
5883;BME280;2967;51.488;6.618;2023-08-21T11:41:02;102043.91;;;25.08;98.70
5883;BME280;2967;51.488;6.618;2023-08-21T11:46:06;102039.13;;;25.27;99.79
5883;BME280;2967;51.488;6.618;2023-08-21T11:51:14;102034.22;;;25.39;95.23
5883;BME280;2967;51.488;6.618;2023-08-21T11:56:17;101965.91;;;25.19;94.75
5883;BME280;2967;51.488;6.618;2023-08-21T12:01:33;102001.13;;;25.77;91.57
5883;BME280;2967;51.488;6.618;2023-08-21T12:06:43;101851.59;;;24.92;96.75
5883;BME280;2967;51.488;6.618;2023-08-21T12:11:46;102011.50;;;25.97;91.83
5883;BME280;2967;51.488;6.618;2023-08-21T12:16:55;102010.66;;;26.13;91.32
5883;BME280;2967;51.488;6.618;2023-08-21T12:21:59;102015.22;;;26.20;89.40
5883;BME280;2967;51.488;6.618;2023-08-21T12:27:02;101875.22;;;25.63;89.57
5883;BME280;2967;51.488;6.618;2023-08-21T12:32:05;102011.47;;;26.61;89.31
5883;BME280;2967;51.488;6.618;2023-08-21T12:37:09;102004.34;;;26.68;86.41
5883;BME280;2967;51.488;6.618;2023-08-21T12:42:12;101991.94;;;26.66;87.27
5883;BME280;2967;51.488;6.618;2023-08-21T12:47:16;102014.59;;;26.97;86.82
5883;BME280;2967;51.488;6.618;2023-08-21T12:52:20;101948.66;;;26.72;86.77
5883;BME280;2967;51.488;6.618;2023-08-21T12:57:23;102010.69;;;27.38;86.79
5883;BME280;2967;51.488;6.618;2023-08-21T13:02:27;101997.50;;;27.57;85.46
5883;BME280;2967;51.488;6.618;2023-08-21T13:07:32;102012.47;;;27.83;85.04
5883;BME280;2967;51.488;6.618;2023-08-21T13:12:36;102002.69;;;27.74;79.94
5883;BME280;2967;51.488;6.618;2023-08-21T13:17:39;101992.13;;;28.16;80.10
5883;BME280;2967;51.488;6.618;2023-08-21T13:22:47;101782.69;;;27.20;79.45
5883;BME280;2967;51.488;6.618;2023-08-21T13:27:51;102001.44;;;28.73;83.23
5883;BME280;2967;51.488;6.618;2023-08-21T13:33:01;101974.91;;;29.25;78.44
5883;BME280;2967;51.488;6.618;2023-08-21T13:38:07;101949.47;;;29.75;76.41
5883;BME280;2967;51.488;6.618;2023-08-21T13:43:36;101994.84;;;30.18;76.12
5883;BME280;2967;51.488;6.618;2023-08-21T13:48:46;102005.91;;;30.37;74.98
5883;BME280;2967;51.488;6.618;2023-08-21T13:53:52;101995.84;;;30.65;73.39
5883;BME280;2967;51.488;6.618;2023-08-21T13:58:56;101988.72;;;30.71;72.95
5883;BME280;2967;51.488;6.618;2023-08-21T14:04:02;101755.50;;;29.42;71.90
5883;BME280;2967;51.488;6.618;2023-08-21T14:09:08;101957.03;;;30.76;68.76
5883;BME280;2967;51.488;6.618;2023-08-21T14:14:11;101977.78;;;31.11;71.80
5883;BME280;2967;51.488;6.618;2023-08-21T14:19:14;101951.69;;;31.02;69.65
5883;BME280;2967;51.488;6.618;2023-08-21T14:24:18;101815.84;;;30.09;69.59
5883;BME280;2967;51.488;6.618;2023-08-21T14:29:21;101956.03;;;30.90;67.93
5883;BME280;2967;51.488;6.618;2023-08-21T14:34:43;101816.16;;;29.99;70.35
5883;BME280;2967;51.488;6.618;2023-08-21T14:39:49;101786.09;;;29.59;70.46
5883;BME280;2967;51.488;6.618;2023-08-21T14:45:13;101650.78;;;28.25;72.38
5883;BME280;2967;51.488;6.618;2023-08-21T14:50:18;101764.13;;;28.62;72.98
5883;BME280;2967;51.488;6.618;2023-08-21T14:55:25;101957.94;;;29.44;72.63
5883;BME280;2967;51.488;6.618;2023-08-21T15:00:28;101967.44;;;28.98;74.69
5883;BME280;2967;51.488;6.618;2023-08-21T15:05:35;101791.78;;;27.64;73.84
5883;BME280;2967;51.488;6.618;2023-08-21T15:10:50;101828.78;;;27.51;75.89
5883;BME280;2967;51.488;6.618;2023-08-21T15:15:53;101862.69;;;27.63;78.00
5883;BME280;2967;51.488;6.618;2023-08-21T15:20:59;101729.19;;;26.76;76.71
5883;BME280;2967;51.488;6.618;2023-08-21T15:26:05;101910.03;;;27.90;77.07
5883;BME280;2967;51.488;6.618;2023-08-21T15:31:11;101907.22;;;27.84;78.94
5883;BME280;2967;51.488;6.618;2023-08-21T15:36:14;101860.28;;;27.45;78.93
5883;BME280;2967;51.488;6.618;2023-08-21T15:41:18;101848.34;;;27.32;80.42
5883;BME280;2967;51.488;6.618;2023-08-21T15:46:21;101861.94;;;27.32;80.80
5883;BME280;2967;51.488;6.618;2023-08-21T15:51:24;101717.38;;;26.38;84.13
5883;BME280;2967;51.488;6.618;2023-08-21T15:56:29;101888.91;;;27.33;83.68
5883;BME280;2967;51.488;6.618;2023-08-21T16:01:34;101708.13;;;26.25;83.66
5883;BME280;2967;51.488;6.618;2023-08-21T16:06:37;101808.97;;;26.75;83.59
5883;BME280;2967;51.488;6.618;2023-08-21T16:11:42;101889.06;;;27.09;82.73
5883;BME280;2967;51.488;6.618;2023-08-21T16:17:01;101854.91;;;26.84;81.48
5883;BME280;2967;51.488;6.618;2023-08-21T16:22:03;101878.31;;;26.85;80.92
5883;BME280;2967;51.488;6.618;2023-08-21T16:27:08;101861.22;;;26.77;83.33
5883;BME280;2967;51.488;6.618;2023-08-21T16:32:11;101845.34;;;26.66;83.53
5883;BME280;2967;51.488;6.618;2023-08-21T16:37:14;101793.78;;;26.19;83.68
5883;BME280;2967;51.488;6.618;2023-08-21T16:42:18;101857.97;;;26.51;84.00
5883;BME280;2967;51.488;6.618;2023-08-21T16:47:21;101850.50;;;26.45;83.65
5883;BME280;2967;51.488;6.618;2023-08-21T16:52:24;101850.00;;;26.41;84.14
5883;BME280;2967;51.488;6.618;2023-08-21T16:57:32;101845.47;;;26.34;83.65
5883;BME280;2967;51.488;6.618;2023-08-21T17:02:38;101778.13;;;25.91;84.13
5883;BME280;2967;51.488;6.618;2023-08-21T17:07:48;101840.06;;;26.18;84.50
5883;BME280;2967;51.488;6.618;2023-08-21T17:12:56;101830.97;;;26.03;85.03
5883;BME280;2967;51.488;6.618;2023-08-21T17:17:59;101830.63;;;25.98;85.39
5883;BME280;2967;51.488;6.618;2023-08-21T17:23:03;101822.84;;;25.79;85.96
5883;BME280;2967;51.488;6.618;2023-08-21T17:28:10;101756.34;;;25.28;85.56
5883;BME280;2967;51.488;6.618;2023-08-21T17:33:13;101799.88;;;25.43;85.97
5883;BME280;2967;51.488;6.618;2023-08-21T17:38:15;101819.00;;;25.49;87.00
5883;BME280;2967;51.488;6.618;2023-08-21T17:43:20;101799.81;;;25.19;86.78
5883;BME280;2967;51.488;6.618;2023-08-21T17:48:24;101845.56;;;25.38;86.72
5883;BME280;2967;51.488;6.618;2023-08-21T17:53:30;101816.06;;;25.19;86.12
5883;BME280;2967;51.488;6.618;2023-08-21T17:58:39;101704.63;;;24.50;85.71
5883;BME280;2967;51.488;6.618;2023-08-21T18:03:42;101759.16;;;24.79;87.36
5883;BME280;2967;51.488;6.618;2023-08-21T18:08:45;101753.06;;;24.61;87.84
5883;BME280;2967;51.488;6.618;2023-08-21T18:13:50;101789.44;;;24.67;88.09
5883;BME280;2967;51.488;6.618;2023-08-21T18:18:58;101676.41;;;23.87;89.10
5883;BME280;2967;51.488;6.618;2023-08-21T18:24:04;101834.47;;;24.83;89.83
5883;BME280;2967;51.488;6.618;2023-08-21T18:29:18;101520.78;;;22.94;90.49
5883;BME280;2967;51.488;6.618;2023-08-21T18:34:21;101822.06;;;24.65;91.10
5883;BME280;2967;51.488;6.618;2023-08-21T18:39:26;101827.78;;;24.54;92.28
5883;BME280;2967;51.488;6.618;2023-08-21T18:44:30;101583.72;;;22.94;93.21
5883;BME280;2967;51.488;6.618;2023-08-21T18:49:33;101841.56;;;24.35;94.03
5883;BME280;2967;51.488;6.618;2023-08-21T18:54:39;101820.88;;;24.26;93.67
5883;BME280;2967;51.488;6.618;2023-08-21T18:59:44;101830.97;;;24.16;94.01
5883;BME280;2967;51.488;6.618;2023-08-21T19:04:51;101770.44;;;23.84;94.42
5883;BME280;2967;51.488;6.618;2023-08-21T19:09:54;101827.53;;;24.06;95.26
5883;BME280;2967;51.488;6.618;2023-08-21T19:14:59;101797.25;;;23.77;98.13
5883;BME280;2967;51.488;6.618;2023-08-21T19:20:05;101835.19;;;23.85;99.13
5883;BME280;2967;51.488;6.618;2023-08-21T19:25:11;101847.31;;;23.81;100.00
5883;BME280;2967;51.488;6.618;2023-08-21T19:30:16;101846.03;;;23.68;100.00
5883;BME280;2967;51.488;6.618;2023-08-21T19:35:21;101854.59;;;23.63;100.00
5883;BME280;2967;51.488;6.618;2023-08-21T19:40:34;101851.91;;;23.63;100.00
5883;BME280;2967;51.488;6.618;2023-08-21T19:45:41;101847.50;;;23.45;100.00
5883;BME280;2967;51.488;6.618;2023-08-21T19:50:54;101856.94;;;23.41;100.00
5883;BME280;2967;51.488;6.618;2023-08-21T19:56:03;101797.91;;;22.93;100.00
5883;BME280;2967;51.488;6.618;2023-08-21T20:01:08;101813.47;;;22.99;100.00
5883;BME280;2967;51.488;6.618;2023-08-21T20:06:13;101853.91;;;23.09;100.00
5883;BME280;2967;51.488;6.618;2023-08-21T20:11:22;101690.81;;;21.97;100.00
5883;BME280;2967;51.488;6.618;2023-08-21T20:51:12;101835.25;;;22.17;100.00
5883;BME280;2967;51.488;6.618;2023-08-21T20:56:19;101788.84;;;21.86;100.00
5883;BME280;2967;51.488;6.618;2023-08-21T21:01:28;101847.28;;;22.22;100.00
5883;BME280;2967;51.488;6.618;2023-08-21T21:06:33;101845.19;;;22.16;100.00
5883;BME280;2967;51.488;6.618;2023-08-21T21:11:37;101834.28;;;22.08;100.00
5883;BME280;2967;51.488;6.618;2023-08-21T21:16:40;101850.88;;;22.13;100.00
5883;BME280;2967;51.488;6.618;2023-08-21T21:21:44;101540.47;;;20.18;100.00
5883;BME280;2967;51.488;6.618;2023-08-21T21:26:47;101830.13;;;21.87;100.00
5883;BME280;2967;51.488;6.618;2023-08-21T21:31:52;101832.66;;;21.88;100.00
5883;BME280;2967;51.488;6.618;2023-08-21T21:36:59;101678.81;;;20.90;100.00
5883;BME280;2967;51.488;6.618;2023-08-21T21:42:02;101833.13;;;21.74;100.00
5883;BME280;2967;51.488;6.618;2023-08-21T21:47:05;101836.13;;;21.72;100.00
5883;BME280;2967;51.488;6.618;2023-08-21T21:52:10;101830.44;;;21.74;100.00
5883;BME280;2967;51.488;6.618;2023-08-21T21:57:13;101819.25;;;21.70;100.00
5883;BME280;2967;51.488;6.618;2023-08-21T22:02:16;101825.19;;;21.63;100.00
5883;BME280;2967;51.488;6.618;2023-08-21T22:07:20;101820.34;;;21.58;100.00
5883;BME280;2967;51.488;6.618;2023-08-21T22:12:23;101748.06;;;21.07;100.00
5883;BME280;2967;51.488;6.618;2023-08-21T22:17:26;101703.16;;;20.70;100.00
5883;BME280;2967;51.488;6.618;2023-08-21T22:22:30;101805.53;;;21.35;100.00
5883;BME280;2967;51.488;6.618;2023-08-21T22:27:33;101754.72;;;20.94;100.00
5883;BME280;2967;51.488;6.618;2023-08-21T22:32:36;101806.22;;;21.18;100.00
5883;BME280;2967;51.488;6.618;2023-08-21T22:37:40;101742.91;;;20.76;100.00
5883;BME280;2967;51.488;6.618;2023-08-21T22:42:43;101812.06;;;21.23;100.00
5883;BME280;2967;51.488;6.618;2023-08-21T22:47:46;101815.31;;;21.17;100.00
5883;BME280;2967;51.488;6.618;2023-08-21T22:52:50;101816.72;;;21.11;100.00
5883;BME280;2967;51.488;6.618;2023-08-21T22:57:53;101800.16;;;21.06;100.00
5883;BME280;2967;51.488;6.618;2023-08-21T23:02:56;101584.66;;;19.86;100.00
5883;BME280;2967;51.488;6.618;2023-08-21T23:08:00;101814.19;;;21.10;100.00
5883;BME280;2967;51.488;6.618;2023-08-21T23:13:03;101752.41;;;20.70;100.00
5883;BME280;2967;51.488;6.618;2023-08-21T23:18:06;101784.25;;;20.84;100.00
5883;BME280;2967;51.488;6.618;2023-08-21T23:23:10;101771.09;;;20.72;100.00
5883;BME280;2967;51.488;6.618;2023-08-21T23:28:13;101732.28;;;20.46;100.00
5883;BME280;2967;51.488;6.618;2023-08-21T23:33:16;101765.69;;;20.53;100.00
5883;BME280;2967;51.488;6.618;2023-08-21T23:38:20;101811.00;;;20.67;100.00
5883;BME280;2967;51.488;6.618;2023-08-21T23:43:23;101755.31;;;20.39;100.00
5883;BME280;2967;51.488;6.618;2023-08-21T23:48:25;101750.53;;;20.42;100.00
5883;BME280;2967;51.488;6.618;2023-08-21T23:53:30;101796.00;;;20.74;100.00
5883;BME280;2967;51.488;6.618;2023-08-21T23:58:35;101785.13;;;20.75;100.00
